Terminal Aerodrome Forecast
Issued by NWS

Home | Current Version | Previous Version | Text Only | Print | Product List | Glossary Off
Versions: 1 2 3 4 5 6 7 8 9 10 11 12 13 14 15 16

000
FTUS43 KTOP 260255 AAA
TAFFOE
TAF AMD
KFOE 260255Z 2603/2624 15007KT P6SM SCT060 BKN120
     FM261000 12006KT P6SM -SHRA VCTS BKN090CB
     FM261600 19008KT P6SM SCT060=

USA.gov is the U.S. government's official web portal to all federal, state and local government web resources and services.